createdAt,value
2023-05-25T00:01:28.227Z,15.76
2023-05-25T00:06:33.480Z,15.64
2023-05-25T00:11:36.895Z,15.59
2023-05-25T00:16:41.188Z,15.50
2023-05-25T00:21:48.717Z,15.47
2023-05-25T00:26:52.467Z,15.42
2023-05-25T00:31:55.974Z,15.42
2023-05-25T00:36:59.598Z,15.44
2023-05-25T00:42:04.138Z,15.45
2023-05-25T00:47:07.647Z,15.46
2023-05-25T00:52:13.277Z,15.42
2023-05-25T00:57:22.669Z,15.37
2023-05-25T01:02:27.319Z,15.31
2023-05-25T01:07:31.450Z,15.29
2023-05-25T01:12:37.000Z,15.25
2023-05-25T01:17:41.296Z,15.21
2023-05-25T01:22:52.019Z,15.13
2023-05-25T01:28:07.314Z,15.05
2023-05-25T01:33:11.190Z,14.99
2023-05-25T01:38:15.066Z,14.94
2023-05-25T01:43:18.573Z,14.93
2023-05-25T01:48:36.116Z,14.87
2023-05-25T01:53:54.584Z,14.81
2023-05-25T01:59:02.420Z,14.76
2023-05-25T02:04:06.461Z,14.71
2023-05-25T02:09:10.160Z,14.65
2023-05-25T02:14:14.177Z,14.58
2023-05-25T02:19:17.590Z,14.52
2023-05-25T02:24:23.865Z,14.47
2023-05-25T02:29:27.389Z,14.46
2023-05-25T02:34:31.110Z,14.46
2023-05-25T02:39:34.730Z,14.43
2023-05-25T02:44:38.549Z,14.41
2023-05-25T02:49:42.067Z,14.40
2023-05-25T02:54:45.786Z,14.40
2023-05-25T02:59:50.168Z,14.46
2023-05-25T03:04:54.164Z,14.52
2023-05-25T03:09:58.479Z,14.60
2023-05-25T03:15:02.004Z,14.65
2023-05-25T03:20:06.585Z,14.70
2023-05-25T03:25:13.843Z,14.73
2023-05-25T03:30:17.368Z,14.74
2023-05-25T03:35:21.093Z,14.79
2023-05-25T03:40:24.816Z,14.82
2023-05-25T03:45:28.427Z,14.80
2023-05-25T03:50:32.452Z,14.79
2023-05-25T03:55:35.864Z,14.82
2023-05-25T04:00:39.590Z,14.81
2023-05-25T04:05:43.357Z,14.87
2023-05-25T04:10:47.120Z,14.95
2023-05-25T04:15:51.665Z,15.04
2023-05-25T04:20:57.738Z,15.14
2023-05-25T04:26:02.178Z,15.25
2023-05-25T04:31:06.182Z,15.32
2023-05-25T04:36:11.349Z,15.39
2023-05-25T04:41:15.615Z,15.40
2023-05-25T04:46:19.226Z,15.38
2023-05-25T04:51:23.331Z,15.44
2023-05-25T04:56:27.107Z,15.55
2023-05-25T05:01:31.357Z,15.61
2023-05-25T05:06:35.628Z,15.65
2023-05-25T05:11:39.346Z,15.75
2023-05-25T05:16:42.890Z,15.95
2023-05-25T05:21:46.580Z,16.18
2023-05-25T05:26:58.194Z,16.27
2023-05-25T05:32:02.623Z,16.37
2023-05-25T05:37:06.234Z,16.50
2023-05-25T05:42:09.855Z,16.60
2023-05-25T05:47:13.376Z,16.87
2023-05-25T05:52:17.193Z,17.00
2023-05-25T05:57:21.422Z,17.10
2023-05-25T06:02:25.106Z,17.28
2023-05-25T06:07:31.224Z,17.49
2023-05-25T06:12:35.066Z,17.78
2023-05-25T06:17:38.527Z,17.95
2023-05-25T06:22:42.182Z,18.06
2023-05-25T06:27:45.799Z,18.11
2023-05-25T06:32:49.456Z,18.22
2023-05-25T06:37:53.243Z,18.35
2023-05-25T06:42:56.647Z,18.42
2023-05-25T06:48:00.536Z,18.49
2023-05-25T06:53:04.808Z,18.60
2023-05-25T06:58:08.211Z,18.61
2023-05-25T07:03:11.757Z,18.66
2023-05-25T07:08:15.360Z,18.80
2023-05-25T07:13:18.869Z,18.91
2023-05-25T07:18:22.382Z,18.98
2023-05-25T07:23:25.923Z,19.15
2023-05-25T07:28:29.315Z,19.36
2023-05-25T07:33:33.340Z,19.50
2023-05-25T07:38:36.960Z,19.59
2023-05-25T07:43:40.992Z,19.70
2023-05-25T07:48:44.500Z,20.03
2023-05-25T07:53:48.018Z,20.22
2023-05-25T07:58:51.742Z,20.43
2023-05-25T08:03:55.854Z,20.41
2023-05-25T08:08:59.398Z,20.34
2023-05-25T08:14:03.012Z,20.43
2023-05-25T08:19:06.818Z,20.56
2023-05-25T08:24:10.335Z,20.73
2023-05-25T08:29:13.952Z,20.83
2023-05-25T08:34:17.578Z,20.88
2023-05-25T08:39:20.993Z,21.01
2023-05-25T08:44:24.398Z,21.14
2023-05-25T08:49:29.502Z,21.45
2023-05-25T08:54:36.821Z,21.63
2023-05-25T08:59:57.164Z,21.73
2023-05-25T09:05:02.543Z,21.93
2023-05-25T09:10:08.009Z,22.07
2023-05-25T09:15:12.464Z,22.30
2023-05-25T09:20:18.909Z,22.51
2023-05-25T09:25:26.527Z,22.86
2023-05-25T09:30:33.326Z,23.11
2023-05-25T09:35:37.670Z,23.40
2023-05-25T09:40:41.579Z,23.63
2023-05-25T09:45:45.637Z,23.99
2023-05-25T09:50:50.180Z,24.16
2023-05-25T09:55:54.581Z,24.21
2023-05-25T10:00:58.644Z,24.03
2023-05-25T10:06:03.567Z,23.80
2023-05-25T10:11:07.994Z,23.91
2023-05-25T10:16:13.775Z,24.16
2023-05-25T10:21:18.830Z,24.39
2023-05-25T10:26:26.740Z,24.55
2023-05-25T10:31:32.544Z,24.67
2023-05-25T10:36:38.485Z,24.48
2023-05-25T10:41:42.701Z,24.11
2023-05-25T10:46:46.205Z,24.15
2023-05-25T10:51:58.704Z,24.40
2023-05-25T10:57:14.490Z,24.64
2023-05-25T11:02:23.853Z,25.07
2023-05-25T11:07:27.726Z,25.10
2023-05-25T11:12:31.171Z,24.80
2023-05-25T11:17:45.372Z,24.70
2023-05-25T11:22:52.509Z,24.42
2023-05-25T11:28:03.509Z,24.50
2023-05-25T11:33:08.169Z,24.70
2023-05-25T11:38:12.375Z,24.79
2023-05-25T11:43:16.300Z,24.81
2023-05-25T11:48:19.931Z,24.83
2023-05-25T11:53:23.737Z,24.70
2023-05-25T11:58:34.268Z,24.69
2023-05-25T12:03:37.771Z,24.71
2023-05-25T12:08:41.445Z,24.76
2023-05-25T12:13:45.064Z,24.84
2023-05-25T12:18:48.835Z,25.03
2023-05-25T12:23:54.961Z,25.14
2023-05-25T12:29:06.259Z,25.26
2023-05-25T12:34:17.781Z,25.54
2023-05-25T12:39:30.664Z,25.60
2023-05-25T12:44:35.730Z,25.80
2023-05-25T12:49:40.246Z,26.26
2023-05-25T12:54:45.495Z,26.35
2023-05-25T12:59:56.797Z,26.26
2023-05-25T13:05:00.402Z,26.47
2023-05-25T13:10:04.060Z,26.59
2023-05-25T13:15:08.071Z,26.73
2023-05-25T13:20:15.854Z,26.73
2023-05-25T13:25:19.755Z,26.47
2023-05-25T13:30:23.313Z,26.41
2023-05-25T13:35:46.385Z,26.37
2023-05-25T13:40:50.062Z,26.37
2023-05-25T13:45:54.140Z,26.02
2023-05-25T13:50:57.500Z,26.44
2023-05-25T13:56:01.424Z,27.42
2023-05-25T14:01:05.497Z,27.22
2023-05-25T14:06:09.074Z,27.38
2023-05-25T14:11:12.590Z,27.94
2023-05-25T14:16:16.209Z,27.84
2023-05-25T14:21:20.128Z,27.39
2023-05-25T14:26:24.670Z,26.73
2023-05-25T14:31:28.768Z,26.21
2023-05-25T14:36:32.208Z,26.74
2023-05-25T14:41:35.933Z,27.94
2023-05-25T14:46:39.408Z,27.59
2023-05-25T14:51:43.477Z,28.00
2023-05-25T14:56:47.919Z,31.55
2023-05-25T15:01:51.704Z,31.53
2023-05-25T15:06:55.353Z,30.07
2023-05-25T15:11:59.868Z,28.21
2023-05-25T15:17:03.411Z,26.88
2023-05-25T15:22:07.236Z,26.02
2023-05-25T15:27:10.849Z,24.93
2023-05-25T15:32:17.952Z,23.90
2023-05-25T15:37:21.466Z,23.39
2023-05-25T15:42:25.006Z,23.11
2023-05-25T15:47:28.687Z,23.46
2023-05-25T15:52:32.423Z,24.24
2023-05-25T15:57:36.048Z,25.62
2023-05-25T16:02:39.669Z,25.01
2023-05-25T16:07:43.380Z,25.28
2023-05-25T16:12:47.000Z,28.16
2023-05-25T16:17:50.726Z,28.17
2023-05-25T16:22:54.129Z,27.51
2023-05-25T16:27:57.853Z,29.59
2023-05-25T16:33:01.428Z,32.37
2023-05-25T16:38:05.183Z,33.58
2023-05-25T16:43:08.601Z,34.07
2023-05-25T16:48:12.277Z,32.30
2023-05-25T16:53:15.848Z,30.90
2023-05-25T16:58:19.350Z,31.29
2023-05-25T17:03:23.024Z,32.19
2023-05-25T17:08:26.717Z,30.77
2023-05-25T17:13:30.209Z,28.19
2023-05-25T17:18:33.669Z,27.20
2023-05-25T17:23:37.237Z,27.76
2023-05-25T17:28:40.750Z,27.16
2023-05-25T17:33:44.382Z,26.41
2023-05-25T17:38:47.987Z,25.41
2023-05-25T17:43:51.505Z,25.73
2023-05-25T17:48:55.022Z,24.80
2023-05-25T17:53:58.548Z,23.86
2023-05-25T17:59:02.155Z,22.83
2023-05-25T18:04:05.811Z,21.98
2023-05-25T18:09:09.510Z,21.23
2023-05-25T18:14:12.804Z,20.45
2023-05-25T18:19:18.262Z,19.81
2023-05-25T18:24:21.793Z,19.34
2023-05-25T18:29:25.192Z,18.99
2023-05-25T18:34:29.894Z,18.69
2023-05-25T18:39:34.231Z,18.38
2023-05-25T18:44:37.567Z,18.08
2023-05-25T18:49:41.202Z,17.81
2023-05-25T18:54:44.514Z,17.54
2023-05-25T18:59:48.133Z,17.31
2023-05-25T19:04:51.592Z,17.10
2023-05-25T19:09:55.160Z,16.90
2023-05-25T19:15:01.176Z,16.74
2023-05-25T19:20:05.196Z,16.62
2023-05-25T19:25:08.610Z,16.59
2023-05-25T19:30:12.353Z,16.54
2023-05-25T19:35:15.710Z,16.53
2023-05-25T19:40:19.684Z,16.51
2023-05-25T19:45:23.155Z,16.50
2023-05-25T19:50:30.876Z,16.52
2023-05-25T19:55:36.529Z,16.46
2023-05-25T20:00:40.003Z,16.42
2023-05-25T20:05:44.204Z,16.36
2023-05-25T20:10:48.201Z,16.30
2023-05-25T20:15:51.674Z,16.21
2023-05-25T20:20:55.332Z,16.14
2023-05-25T20:25:59.069Z,16.04
2023-05-25T20:31:02.578Z,15.96
2023-05-25T20:36:06.348Z,15.86
2023-05-25T20:41:09.802Z,15.76
2023-05-25T20:46:13.393Z,15.69
2023-05-25T20:51:17.146Z,15.62
2023-05-25T20:56:20.764Z,15.52
2023-05-25T21:01:24.724Z,15.44
2023-05-25T21:06:28.108Z,15.35
2023-05-25T21:11:32.034Z,15.23
2023-05-25T21:16:35.508Z,15.10
2023-05-25T21:21:39.476Z,14.96
2023-05-25T21:26:48.172Z,14.84
2023-05-25T21:31:52.125Z,14.69
2023-05-25T21:36:55.750Z,14.58
2023-05-25T21:41:59.376Z,14.45
2023-05-25T21:47:03.026Z,14.32
2023-05-25T21:52:06.910Z,14.20
2023-05-25T21:57:10.438Z,14.09
2023-05-25T22:02:14.220Z,13.99
2023-05-25T22:07:18.072Z,13.92
2023-05-25T22:12:21.606Z,13.85
2023-05-25T22:17:25.221Z,13.75
2023-05-25T22:22:28.722Z,13.64
2023-05-25T22:27:33.368Z,13.54
2023-05-25T22:32:36.939Z,13.48
2023-05-25T22:37:41.313Z,13.43
2023-05-25T22:42:50.466Z,13.35
2023-05-25T22:47:54.113Z,13.23
2023-05-25T22:52:57.702Z,13.10
2023-05-25T22:58:01.238Z,12.96
2023-05-25T23:03:04.915Z,12.87
2023-05-25T23:08:09.069Z,12.79
2023-05-25T23:13:14.726Z,12.72
2023-05-25T23:18:18.161Z,12.64
2023-05-25T23:23:21.860Z,12.55
2023-05-25T23:28:25.430Z,12.44
2023-05-25T23:33:29.608Z,12.36
2023-05-25T23:38:33.023Z,12.25
2023-05-25T23:43:36.587Z,12.17
2023-05-25T23:48:40.171Z,12.06
2023-05-25T23:53:43.778Z,11.92
2023-05-25T23:58:47.393Z,11.82
